Tiempo atmosférico en la estación meteorológica de Antequera, Málaga (400 m.)



Fecha
DESCASC
Temp. máxima en grados centígrados (hora)
DESCASC
Temp. mínima en grados centígrados (hora)
DESCASC
Temp. media en grados centígrados
DESCASC
Racha de viento máxima en m/sg (hora)
DESCASC
Velocidad máxima media en intervalos de 10 minutos(hora)
DESCASC
Precipitaciones diarias en mm
DESCASC
Precipitaciones de 00:00 a 06:00 en mm
DESCASC
Precipitaciones de 06:00 a 12:00 en mm
DESCASC
Precipitaciones de 12:00 a 18:00 en mm
DESCASC
Precipitaciones de 18:00 a 24:00 en mm
DESCASC
16-04-2019 23.3 (16:30) 8 (08:00) 15.6 16.67 (23:50) 8.89 (23:59) 0 0 0 0 0
15-04-2019 27.1 (15:30) 12.3 (07:30) 19.7 11.39 (15:50) 5.28 (18:10) 0 0 0 0 0
14-04-2019 25.6 (18:30) 8 (00:00) 16.8 5.28 (18:40) 2.22 (18:40) 0 0 0 0 0
13-04-2019 21.9 (19:00) 5.7 (00:00) 13.8 6.11 (18:10) 2.5 (18:10) 0 0 0 0 0
12-04-2019 20 (19:00) 4.6 (00:00) 12.3 6.39 (16:50) 2.5 (14:40) 0 0 0 0 0
11-04-2019 17.5 (19:20) 6.5 (00:00) 12 7.22 (16:00) 2.78 (15:10) 0 0 0 0 0
10-04-2019 16 (18:30) 6.7 (00:00) 11.3 8.61 (17:40) 4.17 (13:50) 0 0 0 0 0
09-04-2019 16.1 (16:10) 6.6 (00:00) 11.4 10 (18:20) 4.72 (12:30) 0 0 0 0 0
08-04-2019 -- (--) -- (--) -- -- (--) -- (--) -- 0.2 -- -- 0
07-04-2019 13.7 (17:40) 8 (00:00) 10.8 11.67 (18:00) 3.61 (16:30) 3 0 0.2 0 2.8
06-04-2019 12.5 (16:00) 5.6 (00:00) 9 12.78 (17:00) 6.67 (17:00) 9.3 0 0.2 2 7.1
05-04-2019 12.1 (15:20) 6.9 (00:00) 9.5 13.06 (16:40) 6.11 (16:40) 6 0 3.4 2.1 0.5
04-04-2019 17.4 (18:00) 5.8 (00:00) 11.6 10.28 (20:30) 3.89 (19:50) 0 0 0 0 0
03-04-2019 20.3 (16:40) 7 (00:00) 13.6 10.83 (16:30) 4.44 (18:30) 0 0 0 0 0
02-04-2019 18.8 (17:20) 7 (00:00) 12.9 4.72 (14:10) 1.67 (19:50) 0.1 0.1 0 0 0
01-04-2019 15.7 (16:20) 8.9 (00:00) 12.3 8.61 (18:10) 3.89 (18:10) 7.8 0.1 0 0 7.7
31-03-2019 -- (--) -- (--) -- -- (--) -- (--) 18.2 3.5 8.3 0 6.4
30-03-2019 16.5 (13:40) 10.7 (00:00) 13.6 13.89 (22:30) 6.94 (04:40) 0 0 0 0 0
29-03-2019 15.5 (16:20) 9.5 (00:00) 12.5 16.11 (12:50) 7.78 (20:40) 0 0 0 0 0
28-03-2019 16.9 (14:20) 9.1 (00:00) 13 16.39 (19:20) 8.61 (19:10) 0 0 0 0 0
27-03-2019 16.8 (13:40) 8.6 (00:00) 12.7 14.17 (18:00) 7.22 (18:10) 0 0 0 0 0
26-03-2019 20.2 (12:50) 11.9 (00:00) 16.1 13.89 (17:30) 6.94 (21:00) 0 0 0 0 0
25-03-2019 19.7 (14:10) 6.7 (00:00) 13.2 11.67 (22:40) 6.39 (22:10) 0 0 0 0 0
24-03-2019 17.6 (12:40) 9.9 (00:00) 13.8 11.11 (13:10) 5.28 (12:50) 0 0 0 0 0
23-03-2019 17.2 (15:00) 6.9 (00:00) 12.1 14.17 (14:10) 7.78 (15:50) 0.7 0 0 0.7 0
22-03-2019 16.2 (14:20) 5.3 (00:00) 10.8 13.33 (00:50) 5.56 (18:30) 0 0 0 0 0
21-03-2019 15.1 (13:30) 4.6 (00:00) 9.9 11.11 (00:10) 6.67 (00:50) 0 0 0 0 0
20-03-2019 14.6 (15:30) 8.6 (00:00) 11.6 11.94 (12:20) 6.67 (12:20) 0 0 0 0 0
19-03-2019 18.7 (13:40) 6.6 (00:00) 12.7 10.28 (17:20) 5 (17:50) 0 0 0 0 0

Gráficas

Temp. máximas Temp. mínimas Temp. medias Precipitaciones Rachas de viento máximas Velocidades máximas media en intervalos de 10 minutos

Datos horarios

Fecha y hora oficial Temperatura (ºC) Velocidad del viento (km/h) Dirección del viento Racha (km/h) Dirección de racha Precipitación (mm) Presión (hPa) Tendencia (hPa) Humedad (%)
2019-04-17 23:00:00 13.3 5 Oeste 18 Noroeste 0 967.1 2.8 70
2019-04-17 22:00:00 13.6 10 Noroeste 19 Noroeste 0 965.9 2.1 69
2019-04-17 21:00:00 15.4 3 Sur 23 Sudoeste 0 964.7 1.7 65
2019-04-17 20:00:00 16 4 Oeste 15 Oeste 0 964.3 1.6 63
2019-04-17 19:00:00 16.1 5 Sur 40 Sudoeste 0 963.8 1.1 63
2019-04-17 18:00:00 16 17 Sudoeste 37 Sur 0 963 0.2 64
2019-04-17 17:00:00 16 10 Sur 41 Sudoeste 0 962.7 0.3 66
2019-04-17 16:00:00 16.1 12 Sur 32 Sur 0 962.7 -0.6 65
2019-04-17 15:00:00 16.8 6 Sudoeste 46 Sudeste 0 962.8 -1 64
2019-04-17 14:00:00 17.3 14 Sur 57 Sudeste 0 962.4 -1.9 62
2019-04-17 13:00:00 16.6 19 Sur 44 Sur 0 963.3 -1 62
2019-04-17 12:00:00 16.7 15 Sudeste 41 Sur 0 963.8 -0.5 60
2019-04-17 11:00:00 15.5 4 Sudeste 35 Sur 0 964.3 -0.2 63
2019-04-17 10:00:00 15.8 5 Oeste 50 Este 0.3 964.3 0.4 57
2019-04-17 09:00:00 16.6 16 Sudeste 49 Sudeste 0 964.3 -0.1 53
2019-04-17 08:00:00 14.6 21 Sudeste 44 Sur 0 964.5 0.1 61
2019-04-17 07:00:00 14.6 24 Sudeste 50 Sudeste 0 963.9 -1.4 62
2019-04-17 06:00:00 13.4 23 Sudeste 62 Sudeste 0 964.4 -1.9 68
2019-04-17 05:00:00 15.3 32 Sudeste 71 Sudeste 0 964.4 -2.6 56
2019-04-17 04:00:00 15.4 18 Sudeste 49 Sur 0 965.3 -1.3 52
2019-04-17 03:00:00 14.2 12 Sudeste 46 Sudoeste 0 966.3 -0.2 61
2019-04-17 02:00:00 14.8 19 Sudeste 56 Sudeste 0 967 0.4 59
2019-04-17 01:00:00 15.3 33 Sudeste 65 Sudeste 0 966.6 0.1 57
2019-04-17 00:00:00 15.9 32 Sudeste 60 Sudeste 0 966.5 0.4 56
2019-04-16 23:00:00 16.5 26 Sudeste 50 Sudeste 0 966.6 0.7 39
2019-04-16 22:00:00 17.1 9 Sur 25 Sudeste 0 966.5 0.8 29
2019-04-16 21:00:00 18.1 10 Sur 31 Sur 0 966.1 0.4 26
2019-04-16 20:00:00 19.7 14 Sur 36 Sur 0 965.9 -0.1 27
2019-04-16 19:00:00 21.3 19 Sudeste 38 Sudeste 0 965.7 -1.1 24
2019-04-16 18:00:00 22.2 17 Sudeste 35 Sudeste 0 965.7 -2 26
2019-04-16 17:00:00 22.7 13 Sur 31 Sudeste 0 966 -1.9 25
2019-04-16 16:00:00 22 15 Sudeste 34 Sudeste 0 966.8 -1.9 28
2019-04-16 15:00:00 22.3 15 Sur 35 Sudeste 0 967.7 -2.1 32
2019-04-16 14:00:00 22 14 Sudeste 27 Sudeste 0 967.9 -1.7 38
2019-04-16 13:00:00 19.3 0 Calma 12 Este 0 968.7 -1 52
2019-04-16 12:00:00 17.8 5 Nordeste 17 Nordeste 0 969.8 -0.2 60
2019-04-16 11:00:00 14.9 0 Calma 6 Este 0 969.6 0 75
2019-04-16 10:00:00 13.1 0 Calma 8 Sudeste 0 969.7 0.2 82
2019-04-16 09:00:00 10.7 0 Calma 6 Oeste 0 970 0.3 89
2019-04-16 08:00:00 8.5 0 Calma 6 Noroeste 0 969.6 -0.5 92
2019-04-16 07:00:00 9.1 0 Calma 6 Oeste 0 969.5 -0.5 90
2019-04-16 06:00:00 10.4 0 Calma 3 Nordeste 0 969.7 -0.4 89
2019-04-16 05:00:00 10.4 0 Calma 11 Norte 0 970.1 -0.2 89
2019-04-16 04:00:00 11.8 3 Noroeste 10 Noroeste 0 970 -0.2 83
2019-04-16 03:00:00 12.2 0 Calma 12 Nordeste 0 970.1 0.3 83
2019-04-16 02:00:00 12.8 0 Calma 6 Sudoeste 0 970.3 0.4 79
2019-04-16 01:00:00 13.3 0 Calma 18 Sudoeste 0 970.2 1.3 78
2019-04-16 00:00:00 14.1 6 Oeste 16 Oeste 0 969.8 1.6 76
2019-04-15 23:00:00 14.8 0 Calma 23 Oeste 0 969.9 2.8 74
2019-04-15 22:00:00 16 11 Oeste 29 Oeste 0 968.9 2 65
2019-04-15 21:00:00 18.1 11 Oeste 24 Oeste 0 968.2 2.2 50
2019-04-15 20:00:00 20.7 10 Oeste 29 Sudoeste 0 967.1 2 36
2019-04-15 19:00:00 22.7 9 Oeste 39 Oeste 0 966.9 1.7 32
2019-04-15 18:00:00 24.1 18 Oeste 37 Oeste 0 966 0.9 29
2019-04-15 17:00:00 25 18 Oeste 37 Oeste 0 965.1 -0.3 31
2019-04-15 16:00:00 25.3 15 Oeste 41 Sudoeste 0 965.2 -0.8 33
2019-04-15 15:00:00 25.7 6 Sudoeste 21 Sur 0 965.1 -1.2 30
2019-04-15 14:00:00 25.2 6 Sudeste 18 Sudeste 0 965.4 -0.7 32
2019-04-15 13:00:00 23.9 0 Calma 15 Sur 0 966 0.1 32
2019-04-15 12:00:00 23.3 2 Sur 15 Sur 0 966.3 0.8 36
2019-04-15 11:00:00 20.7 4 Sur 13 Sur 0 966.1 1.2 41
2019-04-15 10:00:00 18.5 0 Calma 8 Oeste 0 965.9 1.3 56
2019-04-15 09:00:00 16.5 4 Oeste 10 Oeste 0 965.5 0.9 60
2019-04-15 08:00:00 14.6 6 Oeste 11 Noroeste 0 964.9 -0.4 66
2019-04-15 07:00:00 13.4 0 Calma 14 Noroeste 0 964.6 -1.4 71
2019-04-15 06:00:00 15.1 0 Calma 10 Oeste 0 964.6 -1.8 68
2019-04-15 05:00:00 14.2 0 Calma 4 Nordeste 0 965.3 -1.8 76
2019-04-15 04:00:00 14.6 0 Calma 4 Oeste 0 966 -1.8 74
2019-04-15 03:00:00 15.7 0 Calma 5 Nordeste 0 966.4 -1.4 70
2019-04-15 02:00:00 17.1 0 Calma 0 Calma 0 967.1 -0.8 64
2019-04-15 01:00:00 17.7 0 Calma -- -- 0 967.8 0 63
2019-04-15 00:00:00 18.5 0 Calma 0 Calma 0 967.8 0.4 57
2019-04-14 23:00:00 19.8 0 Calma 0 Calma 0 967.9 0.8 51
2019-04-14 22:00:00 20.4 0 Calma 7 Nordeste 0 967.8 0.6 50
2019-04-14 21:00:00 21.6 0 Calma 12 Norte 0 967.4 0.2 45
2019-04-14 20:00:00 24.1 5 Noroeste 18 Noroeste 0 967.1 -0.5 39
2019-04-14 19:00:00 25.6 7 Oeste 19 Noroeste 0 967.2 -1.2 37
2019-04-14 18:00:00 24.9 6 Noroeste 18 Noroeste 0 967.2 -1.7 38
2019-04-14 17:00:00 24.7 0 Calma 14 Sudoeste 0 967.6 -1.9 38
2019-04-14 16:00:00 24.3 0 Calma 13 Oeste 0 968.4 -1.6 38
2019-04-14 15:00:00 23.1 4 Oeste 14 Noroeste 0 968.9 -1.4 38
2019-04-14 14:00:00 21.8 0 Calma 13 Noroeste 0 969.5 -1.4 38
2019-04-14 13:00:00 21.5 4 Este 10 Este 0 970 -0.7 41
2019-04-14 12:00:00 18.8 3 Este 9 Este 0 970.3 -0.3 45
2019-04-14 11:00:00 15 2 Este 8 Este 0 970.9 0.4 61
2019-04-14 10:00:00 12 2 Este 7 Sudeste 0 970.7 0.2 74
2019-04-14 09:00:00 9.3 0 Calma 5 Oeste 0 970.6 0.2 80
2019-04-14 08:00:00 8 0 Calma 3 Noroeste 0 970.5 -0.4 81
2019-04-14 07:00:00 8.6 0 Calma 5 Oeste 0 970.5 -0.6 77
2019-04-14 06:00:00 8.8 0 Calma 2 Norte 0 970.4 -1 77
2019-04-14 05:00:00 8.8 0 Calma 2 Este 0 970.9 -0.7 78
2019-04-14 04:00:00 9.4 0 Calma 6 Nordeste 0 971.1 -0.9 75
2019-04-14 03:00:00 10 0 Calma 10 Nordeste 0 971.4 -0.7 72
2019-04-14 02:00:00 11.8 4 Nordeste 10 Norte 0 971.6 -0.5 64
2019-04-14 01:00:00 12.8 0 Calma 4 Oeste 0 972 0.7 59
2019-04-14 00:00:00 13.4 0 Calma 8 Oeste 0 972.1 1.6 56
2019-04-13 23:00:00 14.6 5 Oeste 12 Noroeste 0 972.1 1.9 47
2019-04-13 22:00:00 15.7 4 Noroeste 9 Noroeste 0 971.3 1.5 42
2019-04-13 21:00:00 17.6 0 Calma 14 Noroeste 0 970.5 0.7 38
2019-04-13 20:00:00 20.4 8 Noroeste 22 Noroeste 0 970.2 0.4 32
2019-04-13 19:00:00 21.4 9 Noroeste 22 Noroeste 0 969.8 -0.5 30
2019-04-13 18:00:00 21.3 6 Noroeste 21 Noroeste 0 969.8 -0.8 30
2019-04-13 17:00:00 21 4 Noroeste 17 Nordeste 0 969.8 -1.1 32
2019-04-13 16:00:00 20.7 5 Noroeste 15 Oeste 0 970.3 -1.3 33
2019-04-13 15:00:00 20.2 5 Noroeste 16 Noroeste 0 970.6 -1.3 34
2019-04-13 14:00:00 19.6 4 Nordeste 20 Noroeste 0 970.9 -1 34
2019-04-13 13:00:00 19 3 Noroeste 15 Noroeste 0 971.6 -0.1 38
2019-04-13 12:00:00 17.1 0 Calma 9 Norte 0 971.9 0.8 47
2019-04-13 11:00:00 13.7 0 Calma 8 Norte 0 971.9 1.1 63
2019-04-13 10:00:00 10.5 2 Este 6 Este 0 971.7 1.2 69
2019-04-13 09:00:00 8.6 0 Calma 0 Calma 0 971.1 1.1 77
2019-04-13 08:00:00 5.7 0 Calma 0 Calma 0 970.8 0.4 83
2019-04-13 07:00:00 6.2 0 Calma 5 Este 0 970.5 0.4 83
2019-04-13 06:00:00 5.9 0 Calma 5 Este 0 970 -0.4 82
2019-04-13 05:00:00 7.6 0 Calma 4 Nordeste 0 970.4 -0.4 76
2019-04-13 04:00:00 8 0 Calma 7 Nordeste 0 970.1 -0.7 75
2019-04-13 03:00:00 9.3 2 Nordeste 10 Nordeste 0 970.4 0 68
2019-04-13 02:00:00 10.1 0 Calma 0 Calma 0 970.8 1.1 64
2019-04-13 01:00:00 10.6 0 Calma 4 Oeste 0 970.8 1.8 59
2019-04-13 00:00:00 11.5 3 Oeste 7 Oeste 0 970.4 1.9 53
2019-04-12 23:00:00 13.2 0 Calma 7 Noroeste 0 969.7 1.3 45
2019-04-12 22:00:00 14.6 4 Noroeste 8 Noroeste 0 969 0.8 39
2019-04-12 21:00:00 16.3 0 Calma 15 Noroeste 0 968.5 0.3 35
2019-04-12 20:00:00 18.6 9 Noroeste 20 Noroeste 0 968.4 0.1 32
2019-04-12 19:00:00 19.7 7 Noroeste 20 Oeste 0 968.2 -0.8 32
2019-04-12 18:00:00 19 3 Norte 21 Noroeste 0 968.2 -1.2 33
2019-04-12 17:00:00 19.1 3 Norte 23 Noroeste 0 968.3 -1.5 33
2019-04-12 16:00:00 19.3 4 Oeste 20 Noroeste 0 969 -1.1 33
2019-04-12 15:00:00 18.1 4 Noroeste 22 Noroeste 0 969.4 -1.1 32
2019-04-12 14:00:00 18.8 4 Noroeste 15 Nordeste 0 969.8 -0.6 36
2019-04-12 13:00:00 17.7 0 Calma 23 Nordeste 0 970.1 -0.3 39
2019-04-12 12:00:00 15.5 0 Calma 8 Nordeste 0 970.5 0.2 53
2019-04-12 11:00:00 12.1 0 Calma 5 Sudeste 0 970.4 0.6 71
2019-04-12 10:00:00 9.3 0 Calma 5 Oeste 0 970.4 1.1 82
2019-04-12 09:00:00 6.5 0 Calma 5 Noroeste 0 970.3 1.2 88
2019-04-12 08:00:00 4.6 0 Calma 5 Oeste 0 969.8 0.5 90
2019-04-12 07:00:00 5.6 4 Nordeste 7 Nordeste 0 969.3 0.1 89
2019-04-12 06:00:00 5.5 0 Calma 4 Norte 0 969.1 -0.6 88
2019-04-12 05:00:00 7.1 0 Calma 6 Nordeste 0 969.3 -0.7 84
2019-04-12 04:00:00 7.7 0 Calma 7 Norte 0 969.2 -0.7 82
2019-04-12 03:00:00 8.6 0 Calma 4 Nordeste 0 969.7 0.2 78
2019-04-12 02:00:00 9.5 0 Calma 4 Sudoeste 0 970 0.4 72
2019-04-12 01:00:00 10 0 Calma 14 Oeste 0 969.9 0.8 69
2019-04-12 00:00:00 11.5 0 Calma 5 Nordeste 0 969.5 0.8 63
2019-04-11 23:00:00 12.6 0 Calma 9 Norte 0 969.6 1.2 54
2019-04-11 22:00:00 13.4 2 Norte 10 Noroeste 0 969.1 0.5 50
2019-04-11 21:00:00 14.7 2 Norte 12 Norte 0 968.7 0.2 45
2019-04-11 20:00:00 16.1 2 Norte 20 Noroeste 0 968.4 -0.2 41
2019-04-11 19:00:00 16.6 8 Noroeste 21 Noroeste 0 968.6 -0.4 41
2019-04-11 18:00:00 16.3 3 Norte 21 Noroeste 0 968.5 -0.8 40
2019-04-11 17:00:00 15.8 5 Noroeste 23 Nordeste 0 968.6 -0.7 45
2019-04-11 16:00:00 16.3 8 Noroeste 26 Noroeste 0 969 -0.9 46
2019-04-11 15:00:00 16.9 10 Noroeste 25 Oeste 0 969.3 -0.8 48
2019-04-11 14:00:00 16.2 6 Noroeste 18 Oeste 0 969.3 -0.8 50
2019-04-11 13:00:00 15.3 8 Noroeste 17 Noroeste 0 969.9 -0.3 50
2019-04-11 12:00:00 13.4 3 Noroeste 14 Noroeste 0 970.1 0 62
2019-04-11 11:00:00 11.8 4 Nordeste 14 Este 0 970.1 0.6 69
2019-04-11 10:00:00 9.7 0 Calma 10 Nordeste 0 970.2 1.1 77
2019-04-11 09:00:00 7.9 6 Nordeste 9 Nordeste 0 970.1 0.7 82
2019-04-11 08:00:00 6.6 2 Nordeste 8 Norte 0 969.5 0.3 84
2019-04-11 07:00:00 7.7 0 Calma 5 Nordeste 0 969.1 0 78
2019-04-11 06:00:00 8.3 0 Calma 5 Oeste 0 969.4 0.1 76
2019-04-11 05:00:00 8.4 0 Calma 8 Sudoeste 0 969.2 -0.1 76
2019-04-11 04:00:00 8.3 0 Calma 5 Sudoeste 0 969.1 -0.2 76
2019-04-11 03:00:00 8.3 0 Calma 9 Oeste 0 969.3 0.2 74
2019-04-11 02:00:00 8.3 0 Calma 5 Sudoeste 0 969.3 0.3 71
2019-04-11 01:00:00 9.5 0 Calma 9 Noroeste 0 969.3 0.8 64
2019-04-11 00:00:00 10.2 0 Calma 12 Noroeste 0 969.1 1.7 61
2019-04-10 23:00:00 11.9 5 Oeste 12 Noroeste 0 969 1.9 53
2019-04-10 22:00:00 12.5 5 Noroeste 14 Noroeste 0 968.5 1.4 51
2019-04-10 21:00:00 13.5 8 Noroeste 19 Noroeste 0 967.4 0.2 48
2019-04-10 20:00:00 15.3 9 Oeste 19 Noroeste 0 967.1 -0.6 47
2019-04-10 19:00:00 14.3 10 Oeste 30 Noroeste 0 967.1 -1 50
2019-04-10 18:00:00 15.2 12 Noroeste 31 Noroeste 0 967.2 -1.5 49
2019-04-10 17:00:00 14.3 11 Noroeste 27 Noroeste 0 967.7 -1.2 51
2019-04-10 16:00:00 14.1 10 Noroeste 30 Noroeste 0 968.1 -1 51
2019-04-10 15:00:00 13.5 14 Noroeste 30 Oeste 0 968.7 -0.9 53
2019-04-10 14:00:00 13.1 13 Noroeste 28 Noroeste 0 968.9 -0.8 53
2019-04-10 13:00:00 11.6 11 Noroeste 28 Noroeste 0 969.1 -0.5 59
2019-04-10 12:00:00 11.3 11 Noroeste 27 Noroeste 0 969.6 -- 65
2019-04-10 11:00:00 10.5 12 Noroeste 26 Noroeste 0 969.7 1 71
2019-04-10 10:00:00 9.1 9 Noroeste 19 Noroeste 0 969.6 0.8 78
2019-04-10 09:00:00 -- 6 Noroeste 13 Noroeste 0 -- -- --
2019-04-10 08:00:00 7.1 6 Noroeste 13 Noroeste 0 968.7 -0.2 87
2019-04-10 07:00:00 7.4 0 Calma 7 Norte 0 968.8 -0.1 88
2019-04-10 06:00:00 8.3 0 Calma 13 Noroeste 0 968.7 -0.7 86
2019-04-10 05:00:00 9.4 5 Noroeste 14 Noroeste 0 968.9 -0.7 83
2019-04-10 04:00:00 9.7 6 Noroeste 17 Noroeste 0 968.9 -0.8 81
2019-04-10 03:00:00 10.3 3 Oeste 13 Oeste 0 969.4 -0.3 81
2019-04-10 02:00:00 9.7 0 Calma 5 Oeste 0 969.6 0.1 84
2019-04-10 01:00:00 9.9 0 Calma 18 Oeste 0 969.7 0.7 82
2019-04-10 00:00:00 10.2 4 Oeste 18 Sudoeste 0 969.7 1.4 80
2019-04-09 23:00:00 10.9 6 Oeste 23 Sudoeste 0 969.5 1.5 74
2019-04-09 22:00:00 11.6 0 Calma 17 Oeste 0 969 1 68
2019-04-09 21:00:00 12.7 8 Oeste 30 Oeste 0 968.3 0.4 58
2019-04-09 20:00:00 14 12 Oeste 27 Sur 0 968 -0.2 54
2019-04-09 19:00:00 15.4 10 Noroeste 36 Sur 0 968 -0.4 48
2019-04-09 18:00:00 15.3 14 Oeste 34 Oeste 0 967.9 -1.2 48
2019-04-09 17:00:00 14.8 15 Oeste 33 Oeste 0 968.2 -1.2 50
2019-04-09 16:00:00 15.4 14 Oeste 31 Noroeste 0 968.4 -1.5 50
2019-04-09 15:00:00 15.3 14 Oeste 33 Oeste 0 969.1 -1.1 50
2019-04-09 14:00:00 14.6 13 Noroeste 33 Oeste 0 969.4 -0.8 51
2019-04-09 13:00:00 13.9 14 Oeste 32 Oeste 0 969.9 -0.5 56
2019-04-09 12:00:00 11.7 9 Oeste 25 Noroeste 0 970.2 0 71
2019-04-09 11:00:00 11.4 7 Oeste 18 Oeste 0 970.2 0.5 76
2019-04-09 10:00:00 9.1 0 Calma 5 Oeste 0 970.4 1 88
2019-04-09 09:00:00 8 0 Calma 2 Noroeste 0 970.2 0.8 89
2019-04-09 08:00:00 6.8 0 Calma -- -- 0 969.7 0.4 88
2019-04-09 07:00:00 7.5 0 Calma -- -- 0 969.4 -0.1 88
2019-04-09 06:00:00 6.9 0 Calma -- -- 0 969.4 -0.2 87
2019-04-09 05:00:00 7.6 0 Calma -- -- 0 969.3 0.1 86
2019-04-09 04:00:00 8.9 0 Calma 5 Oeste 0 969.5 0.2 82
2019-04-09 03:00:00 10.4 0 Calma 11 Sudoeste 0 969.6 0.4 81
2019-04-09 02:00:00 10.9 0 Calma 13 Sudoeste 0 969.2 0.2 78
2019-04-09 01:00:00 11.2 0 Calma 13 Sudoeste 0 969.3 0.9 74
2019-04-09 00:00:00 11.5 3 Sudoeste 24 Oeste 0 969.2 1.2 69
2019-04-08 23:00:00 12.1 0 Calma 15 Oeste 0 969 1.4 69
2019-04-08 22:00:00 12.5 3 Sudoeste 16 Sur 0 968.4 1.1 68
2019-04-08 21:00:00 12.8 4 Oeste 17 Oeste 0 968 -- 73
2019-04-08 20:00:00 13.8 6 Sudoeste 25 Oeste 0 967.6 -- 69
2019-04-08 19:00:00 14 7 Sudoeste 26 Oeste 0 967.3 -- 74
2019-04-08 18:00:00 -- -- -- -- -- -- -- -- --
2019-04-08 17:00:00 -- -- -- -- -- -- -- -- --
2019-04-08 16:00:00 -- -- -- -- -- -- -- -- --
2019-04-08 15:00:00 -- -- -- -- -- -- -- -- --
2019-04-08 14:00:00 -- -- -- -- -- -- -- -- --
2019-04-08 13:00:00 -- -- -- -- -- -- -- -- --
2019-04-08 12:00:00 -- -- -- -- -- -- -- -- --
2019-04-08 11:00:00 -- -- -- -- -- -- -- -- --
2019-04-08 10:00:00 -- -- -- -- -- -- -- -- --
2019-04-08 09:00:00 -- -- -- -- -- -- -- -- --
2019-04-08 08:00:00 -- -- -- -- -- -- -- -- --
2019-04-08 07:00:00 -- -- -- -- -- -- -- -- --
2019-04-08 06:00:00 10.8 0 Calma 0 Calma 0 967.8 -0.9 87
2019-04-08 05:00:00 10.8 0 Calma 6 Oeste 0.1 968.2 -0.6 89
2019-04-08 04:00:00 10.8 0 Calma 6 Sudoeste 0 968.3 -0.6 89
2019-04-08 03:00:00 11.2 0 Calma 5 Sur 0 968.7 -0.4 88
2019-04-08 02:00:00 11.2 0 Calma 8 Oeste 0 968.8 0 89
2019-04-08 01:00:00 11.4 0 Calma 8 Oeste 0.1 968.9 0.6 90
2019-04-08 00:00:00 11.9 4 Sudoeste 17 Sudoeste 0 969.1 1.5 92
2019-04-07 23:00:00 12 5 Sudoeste 19 Oeste 0.1 968.8 1.4 93
2019-04-07 22:00:00 12 3 Sudoeste 14 Sudoeste 1.6 968.3 1 93
2019-04-07 21:00:00 11.9 3 Sudoeste 12 Sudoeste 0.5 967.6 0.4 93
2019-04-07 20:00:00 12.2 0 Calma 4 Sur 0.5 967.4 0.1 86
2019-04-07 19:00:00 12.6 0 Calma 20 Oeste 0.1 967.3 -0.3 81
2019-04-07 18:00:00 12.8 11 Oeste 42 Oeste 0 967.2 -0.3 76
2019-04-07 17:00:00 12.7 13 Oeste 31 Oeste 0 967.3 -0.2 72
2019-04-07 16:00:00 12.2 12 Oeste 28 Oeste 0 967.6 0 78
2019-04-07 15:00:00 12.7 9 Oeste 29 Oeste 0 967.5 0.2 69
2019-04-07 14:00:00 13 12 Oeste 25 Oeste 0 967.5 0.5 63
2019-04-07 13:00:00 12 9 Oeste 23 Oeste 0 967.6 1.1 64
2019-04-07 12:00:00 11 8 Oeste 18 Oeste 0 967.3 1.4 71
2019-04-07 11:00:00 10.3 6 Noroeste 16 Noroeste 0 967 1.7 76
2019-04-07 10:00:00 9.3 6 Oeste 23 Oeste 0 966.5 1.4 77
2019-04-07 09:00:00 8.5 5 Oeste 16 Oeste 0.2 965.9 1.1 84
2019-04-07 08:00:00 8.1 6 Oeste 13 Oeste 0 965.3 0.4 85
2019-04-07 07:00:00 8.2 2 Oeste 19 Oeste 0 965.1 0.1 83
2019-04-07 06:00:00 8.2 10 Oeste 23 Oeste 0 964.8 -0.2 81
2019-04-07 05:00:00 8.4 7 Oeste 17 Oeste 0 964.9 0.1 81
2019-04-07 04:00:00 8.5 4 Oeste 17 Oeste 0 965 0.7 82
2019-04-07 03:00:00 8.4 3 Oeste 16 Oeste 0 965 0.9 83
2019-04-07 02:00:00 8.6 9 Oeste 21 Oeste 0 964.8 1 84
2019-04-07 01:00:00 8.4 5 Oeste 23 Oeste 0 964.3 1.3 84
2019-04-07 00:00:00 8.4 5 Oeste 15 Oeste 0 964.1 1.3 88
2019-04-06 23:00:00 8.1 4 Sudoeste 24 Oeste 0 963.8 1.8 90
2019-04-06 22:00:00 7.8 0 Calma 17 Noroeste 1.3 963 1.7 92
2019-04-06 21:00:00 7.6 0 Calma 39 Oeste 2.9 962.8 2 92
2019-04-06 20:00:00 7.9 8 Oeste 31 Oeste 2.5 962 0.8 88
2019-04-06 19:00:00 9.4 6 Oeste 23 Oeste 0.4 961.3 0.8 84
2019-04-06 18:00:00 9.5 4 Oeste 35 Noroeste 1 960.8 -0.5 87
2019-04-06 17:00:00 8.4 24 Noroeste 46 Noroeste 0 961.2 -0.4 71
2019-04-06 16:00:00 12.1 6 Sudoeste 30 Oeste 0 960.5 -1.1 69
2019-04-06 15:00:00 11.4 10 Oeste 32 Oeste 0.4 961.3 -0.5 71
2019-04-06 14:00:00 9.2 13 Oeste 32 Oeste 0.1 961.6 -0.1 76
2019-04-06 13:00:00 10.4 8 Oeste 24 Sudoeste 0.5 961.6 -0.1 78
2019-04-06 12:00:00 9.8 7 Sudoeste 26 Oeste 0 961.8 0.4 72
2019-04-06 11:00:00 8.8 0 Calma 13 Sur 0 961.7 0.6 75
2019-04-06 10:00:00 7.6 3 Sudoeste 9 Sudoeste 0.2 961.7 1 81
2019-04-06 09:00:00 7 0 Calma 0 Calma 0 961.4 1.2 88
2019-04-06 08:00:00 6 0 Calma 9 Noroeste 0 961.1 1 87
2019-04-06 07:00:00 6.5 0 Calma 14 Oeste 0 960.7 0.6 83
2019-04-06 06:00:00 6.9 6 Oeste 21 Oeste 0 960.2 -0.3 83
2019-04-06 05:00:00 6.7 8 Oeste 23 Oeste 0 960.1 -0.7 83
2019-04-06 04:00:00 6 0 Calma 4 Oeste 0 960.1 -0.2 82
2019-04-06 03:00:00 5.7 0 Calma 0 Calma 0 960.5 0.6 82
2019-04-06 02:00:00 6.7 0 Calma 15 Oeste 0 960.8 1.4 78
2019-04-06 01:00:00 7 5 Oeste 19 Sudoeste 0 960.3 1.9 78
2019-04-06 00:00:00 7.3 7 Oeste 21 Oeste 0 959.9 2 78
2019-04-05 23:00:00 7.4 6 Oeste 28 Oeste 0.2 959.4 2 83
2019-04-05 22:00:00 7.6 0 Calma 14 Sudoeste 0 958.4 1.8 76
2019-04-05 21:00:00 8.1 6 Oeste 24 Oeste 0.2 957.9 1.8 74
2019-04-05 20:00:00 10.2 8 Oeste 35 Oeste 0 957.4 1.1 55
2019-04-05 19:00:00 11.8 14 Oeste 39 Oeste 0.1 956.6 1 53
2019-04-05 18:00:00 11.3 17 Oeste 40 Oeste 0 956.1 0 51
2019-04-05 17:00:00 8.5 10 Oeste 47 Noroeste 0 956.3 0.3 77
2019-04-05 16:00:00 11.6 15 Oeste 37 Oeste 0 955.6 -0.4 53
2019-04-05 15:00:00 10.8 14 Oeste 31 Oeste 0.1 956.1 1 62
2019-04-05 14:00:00 9.2 7 Oeste 21 Oeste 0.1 956 0.4 86
2019-04-05 13:00:00 8.5 6 Oeste 24 Oeste 1.9 956 0.7 88
2019-04-05 12:00:00 9.4 0 Calma 15 Oeste 0.1 955.1 -0.5 81
2019-04-05 11:00:00 8.7 5 Sudoeste 20 Sur 0.1 955.6 0.1 84
2019-04-05 10:00:00 8.3 3 Sur 25 Sudoeste 2.1 955.3 -0.3 90
2019-04-05 09:00:00 8.4 3 Sur 9 Sudeste 1.1 955.6 -0.4 83
2019-04-05 08:00:00 9.6 0 Calma 8 Oeste 0 955.5 -0.9 69
2019-04-05 07:00:00 9.5 0 Calma 9 Sur 0 955.6 -1.2 66
2019-04-05 06:00:00 9.6 0 Calma 9 Sudoeste 0 956 -1.5 65
2019-04-05 05:00:00 9.7 2 Oeste 14 Sur 0 956.4 -0.8 65
2019-04-05 04:00:00 9.8 7 Oeste 17 Oeste 0 956.8 -0.6 64
2019-04-05 03:00:00 9.5 3 Sudoeste 19 Sudoeste 0 957.5 0.4 59
2019-04-05 02:00:00 9.1 5 Sudoeste 23 Sudoeste 0 957.2 0.3 57
2019-04-05 01:00:00 8.9 5 Sudoeste 23 Oeste 0 957.4 1 54
2019-04-05 00:00:00 9.4 2 Oeste 12 Oeste 0 957.1 1.3 51
2019-04-04 23:00:00 9.8 0 Calma 17 Sudoeste 0 956.9 1.6 48
2019-04-04 22:00:00 11 8 Oeste 24 Oeste 0 956.4 1.4 45
2019-04-04 21:00:00 12.6 9 Oeste 37 Oeste 0 955.8 0.5 45
2019-04-04 20:00:00 15.2 14 Oeste 27 Oeste 0 955.3 -0.2 40
2019-04-04 19:00:00 16.8 13 Oeste 26 Norte 0 955 -1 35
2019-04-04 18:00:00 16.9 5 Noroeste 26 Norte 0 955.3 -1.2 35
2019-04-04 17:00:00 16.8 4 Noroeste 24 Oeste 0 955.5 -1.5 35
2019-04-04 16:00:00 16.8 9 Noroeste 26 Sur 0 956 -1.3 35
2019-04-04 15:00:00 16.5 5 Oeste 23 Oeste 0 956.5 -1.1 35
2019-04-04 14:00:00 16 9 Oeste 24 Oeste 0 957 -0.4 36
2019-04-04 13:00:00 14.4 7 Noroeste 17 Noroeste 0 957.3 0 37
2019-04-04 12:00:00 12.5 0 Calma 15 Sur 0 957.6 1 45
2019-04-04 11:00:00 10.5 4 Este 9 Nordeste 0 957.4 1.1 57
2019-04-04 10:00:00 8.7 0 Calma 5 Sudoeste 0 957.3 1.3 62
2019-04-04 09:00:00 6.6 0 Calma 3 Sudoeste 0 956.6 0.9 69
2019-04-04 08:00:00 6.1 2 Noroeste 12 Noroeste 0 956.3 0.5 69
2019-04-04 07:00:00 7.3 8 Noroeste 17 Noroeste 0 956 0.2 68
2019-04-04 06:00:00 7.3 9 Noroeste 14 Noroeste 0 955.7 -0.5 71
2019-04-04 05:00:00 8.1 10 Noroeste 17 Noroeste 0 955.8 -0.7 70
2019-04-04 04:00:00 9 9 Noroeste 17 Norte 0 955.8 -1.2 69
2019-04-04 03:00:00 9.6 5 Noroeste 18 Noroeste 0 956.2 -0.9 68
2019-04-04 02:00:00 9.8 0 Calma 10 Oeste 0 956.5 -0.8 68
2019-04-04 01:00:00 9.8 0 Calma 5 Oeste 0 957 -0.1 68
2019-04-04 00:00:00 10.3 0 Calma 12 Oeste 0 957.1 0.3 66
2019-04-03 23:00:00 11.1 4 Oeste 8 Oeste 0 957.3 0.6 63
2019-04-03 22:00:00 13.1 3 Oeste 9 Oeste 0 957.1 0.3 51
2019-04-03 21:00:00 15.2 0 Calma 22 Sur 0 956.8 -0.2 46
2019-04-03 20:00:00 17.8 9 Oeste 26 Oeste 0 956.7 -0.9 40
2019-04-03 19:00:00 19.3 11 Oeste 32 Oeste 0 956.8 -1.5 39
2019-04-03 18:00:00 19.3 15 Oeste 36 Oeste 0 957 -2.4 38
2019-04-03 17:00:00 19.7 12 Oeste -- -- -- 957.6 -2.6 39
2019-04-03 16:00:00 19.7 11 Oeste 27 Oeste 0 958.3 -2.5 41
2019-04-03 15:00:00 19.1 8 Noroeste 22 Noroeste 0 959.4 -1.9 45
2019-04-03 14:00:00 17.8 3 Oeste 12 Noroeste 0 960.2 -1.3 48
2019-04-03 13:00:00 17.4 0 Calma 13 Oeste 0 960.8 -1 50
2019-04-03 12:00:00 16.2 0 Calma 4 Este 0 961.3 -1.2 62
2019-04-03 11:00:00 12.6 0 Calma 4 Este 0 961.5 -1.3 77
2019-04-03 10:00:00 9.7 0 Calma 6 Nordeste 0 961.8 -1.4 83
2019-04-03 09:00:00 8.4 0 Calma 2 Nordeste 0 962.5 -1.2 91
2019-04-03 08:00:00 7.3 0 Calma 5 Nordeste 0 962.8 -1.6 93
2019-04-03 07:00:00 7.5 0 Calma 0 Calma 0 963.2 -1.7 92
2019-04-03 06:00:00 8.3 0 Calma 4 Nordeste 0 963.7 -1.7 91
2019-04-03 05:00:00 8.9 0 Calma 6 Norte 0 964.4 -1.6 90
2019-04-03 04:00:00 9.5 0 Calma 5 Nordeste 0 964.9 -1.2 90
2019-04-03 03:00:00 10.2 0 Calma 0 Calma 0 965.4 -1.1 86
2019-04-03 02:00:00 10.8 0 Calma 5 Noroeste 0 966 -0.2 86
2019-04-03 01:00:00 12.3 0 Calma 5 Noroeste 0 966.1 0.2 77
2019-04-03 00:00:00 12.5 0 Calma 6 Noroeste 0 966.5 0.8 75
2019-04-02 23:00:00 13.6 0 Calma 5 Noroeste 0 966.2 0.4 68
2019-04-02 22:00:00 14.9 0 Calma 6 Noroeste 0 965.9 0.1 56
2019-04-02 21:00:00 15.7 2 Noroeste 7 Noroeste 0 965.7 -0.3 52
2019-04-02 20:00:00 17.6 3 Noroeste 12 Noroeste 0 965.8 -0.6 46
2019-04-02 19:00:00 17.8 3 Noroeste 12 Noroeste 0 965.8 -0.9 44
2019-04-02 18:00:00 18.5 4 Noroeste 15 Noroeste 0 966 -1.5 45
2019-04-02 17:00:00 18.5 5 Norte 15 Noroeste 0 966.4 -1.5 46
2019-04-02 16:00:00 18.2 2 Noroeste 12 Nordeste 0 966.7 -1.7 42
2019-04-02 15:00:00 17.1 0 Calma 17 Oeste 0 967.5 -1.7 46
2019-04-02 14:00:00 16.1 0 Calma 11 Noroeste 0 967.9 -1.2 56
2019-04-02 13:00:00 14.2 0 Calma 0 Calma 0 968.4 -0.2 78
2019-04-02 12:00:00 11.1 0 Calma 2 Oeste 0 969.2 0.6 95
2019-04-02 11:00:00 9 0 Calma 0 Calma 0 969.1 1 95
2019-04-02 10:00:00 7.7 0 Calma 2 Sudeste 0 968.6 0.7 95
2019-04-02 09:00:00 7.1 0 Calma 0 Calma 0 968.6 0.6 95
2019-04-02 08:00:00 7.5 0 Calma 0 Calma 0 968.1 0 95
2019-04-02 07:00:00 7.4 0 Calma 7 Oeste 0 967.9 -0.5 95
2019-04-02 06:00:00 7.7 0 Calma 6 Noroeste 0 968 -0.8 95
2019-04-02 05:00:00 8.2 0 Calma 4 Noroeste 0 968.1 -0.7 95
2019-04-02 04:00:00 8.6 0 Calma 5 Noroeste 0.1 968.4 -0.6 94
2019-04-02 03:00:00 8.8 3 Oeste 8 Oeste 0 968.8 0.1 93
2019-04-02 02:00:00 9.8 0 Calma 0 Calma 0 968.8 0.4 92
2019-04-02 01:00:00 10.7 0 Calma 9 Norte 0 969 1 92
2019-04-02 00:00:00 10.7 6 Nordeste -- -- -- 968.7 1.5 91
2019-04-01 23:00:00 10.9 6 Nordeste 10 Nordeste 0 968.4 2.4 90
2019-04-01 22:00:00 11.2 5 Este 14 Oeste 7.4 968 2.1 93
2019-04-01 21:00:00 12 4 Noroeste 15 Noroeste 0.2 967.2 1.5 87
2019-04-01 20:00:00 13.1 0 Calma 9 Este 0 966 0.3 75
2019-04-01 19:00:00 13.4 0 Calma 31 Noroeste 0.1 965.9 -0.1 68
2019-04-01 18:00:00 13.8 6 Oeste 30 Oeste 0 965.7 -0.5 68
2019-04-01 17:00:00 15.3 3 Sudeste -- -- -- 965.7 -0.7 63
2019-04-01 16:00:00 15 6 Sudeste 16 Sur 0 966 -0.6 68
2019-04-01 15:00:00 14.3 4 Sudeste 17 Sudeste 0 966.2 -0.4 74
2019-04-01 14:00:00 14 4 Sur 16 Sur 0 966.4 0.1 69
2019-04-01 13:00:00 13.5 0 Calma 2 Sur 0 966.6 1.1 70
2019-04-01 12:00:00 12.7 0 Calma -- -- -- 966.6 1.6 78
2019-04-01 11:00:00 12.9 0 Calma 9 Oeste 0 966.3 1.7 83
2019-04-01 10:00:00 10.6 0 Calma 6 Noroeste 0 965.5 1.2 93
2019-04-01 09:00:00 9.8 0 Calma 7 Sudoeste 0 965 1.1 93
2019-04-01 08:00:00 9 0 Calma 4 Sudeste 0 964.6 0.3 93
2019-04-01 07:00:00 9.6 3 Noroeste 12 Noroeste 0 964.3 -0.1 93
2019-04-01 06:00:00 9.9 0 Calma 2 Sudeste 0 963.9 -0.7 93
2019-04-01 05:00:00 9.8 0 Calma 6 Oeste 0 964.3 -0.5 93
2019-04-01 04:00:00 10.4 0 Calma 5 Oeste 0.1 964.4 -0.2 92
2019-04-01 03:00:00 10.6 0 Calma -- -- 0 964.6 0.2 92
2019-04-01 02:00:00 11.2 0 Calma 5 Nordeste 0 964.8 0.3 92
2019-04-01 01:00:00 11.3 2 Nordeste 6 Nordeste 0 964.6 0.8 91
2019-04-01 00:00:00 11.3 3 Nordeste 8 Sudoeste 1.2 964.4 1.3 92
2019-03-31 23:00:00 11.7 0 Calma 4 Oeste 0.2 964.5 2.6 92
2019-03-31 22:00:00 11.7 0 Calma 15 Oeste 2.8 963.8 2.5 91
2019-03-31 21:00:00 12.1 2 Oeste 28 Oeste 2.2 963.1 1.6 88
2019-03-31 20:00:00 14.9 8 Sudoeste 26 Sudoeste 0 961.9 0.4 65
2019-03-31 19:00:00 17.9 0 Calma -- -- -- 961.3 -0.7 48
2019-03-31 18:00:00 17.8 0 Calma 15 Oeste 0 961.5 -1.3 52
2019-03-31 17:00:00 17.5 5 Noroeste 16 Noroeste 0 961.5 -1.9 52
2019-03-31 16:00:00 17 0 Calma 13 Sur 0 962 -1.9 53
2019-03-31 15:00:00 16.3 3 Nordeste 10 Norte 0 962.8 -1.5 62
2019-03-31 14:00:00 15.2 0 Calma 12 Este 0 963.4 -0.8 64
2019-03-31 13:00:00 14.6 0 Calma 9 Nordeste 0 963.9 -0.1 73
2019-03-31 12:00:00 13.1 0 Calma 9 Nordeste 0 964.3 0.5 87
2019-03-31 11:00:00 11.7 0 Calma 8 Este 0 964.2 0.5 92
2019-03-31 10:00:00 11.1 0 Calma 3 Nordeste 0.3 964 0.3 94
2019-03-31 09:00:00 10.9 0 Calma 0 Calma 2.1 963.8 -0.3 94
2019-03-31 08:00:00 10.9 0 Calma -- -- 2.9 963.7 -1 94
2019-03-31 07:00:00 10.9 0 Calma 0 Calma 3 963.7 -- 94
2019-03-31 06:00:00 11 0 Calma 2 Sur 1.4 964.1 -1.6 94
2019-03-31 05:00:00 11.1 0 Calma -- -- -- 964.7 -1.6 94
2019-03-31 03:00:00 12 4 Sur 25 Sur 0 965.7 -1.5 83
2019-03-31 01:00:00 12.2 8 Sur 25 Sur 0 966.3 -0.7 81
2019-03-31 00:00:00 12.1 11 Sur 44 Sudeste 0 966.9 0.3 82
2019-03-30 23:00:00 11.9 21 Sur 50 Sur 0 967.2 0.8 80
2019-03-30 22:00:00 12.1 15 Sur 41 Sur 0 967 0 76
2019-03-30 21:00:00 12 12 Sur 41 Sur 0 966.6 -0.6 74
2019-03-30 20:00:00 12.4 9 Sur 33 Sur 0 966.4 -0.8 73
2019-03-30 19:00:00 12.6 15 Sur 35 Sudeste 0 967 -0.1 71
2019-03-30 18:00:00 13 16 Sur 39 Sudeste 0 967.2 -0.3 69
2019-03-30 17:00:00 14.2 15 Sudeste 41 Sudeste 0 967.2 -1.3 64
2019-03-30 16:00:00 15 13 Sur 37 Sudeste 0 967.1 -2 60
2019-03-30 15:00:00 15.2 13 Sudeste 36 Sur 0 967.5 -2 56
2019-03-30 14:00:00 15.2 6 Sudeste 37 Sudeste 0 968.5 -1.7 56
2019-03-30 13:00:00 14.9 19 Sudeste 35 Sur 0 969.1 -0.9 59
2019-03-30 12:00:00 14.8 15 Sur 31 Sur 0 969.5 -0.5 59
2019-03-30 11:00:00 13.9 13 Sudeste 35 Sudeste 0 970.2 -0.1 65
2019-03-30 10:00:00 12.3 15 Sudeste 36 Sudeste 0 970 -0.6 69
2019-03-30 09:00:00 11.6 18 Sudeste 37 Sudeste 0 970 0.2 72
2019-03-30 08:00:00 10.7 12 Sur 29 Sudeste 0 970.3 0.1 75
2019-03-30 07:00:00 10.8 14 Sur 39 Sur 0 970.6 0.2 77
2019-03-30 06:00:00 11 17 Sur 43 Sur 0 969.8 -1.2 75
2019-03-30 05:00:00 10.8 18 Sur 46 Sur 0 970.2 -1.2 76
2019-03-30 04:00:00 11.1 20 Sur 46 Sur 0 970.4 -1.9 76
2019-03-30 03:00:00 11.1 21 Sur 39 Sur 0 971 -1.6 77
2019-03-30 02:00:00 11.4 15 Sur 37 Sudeste 0 971.4 -1.3 76
2019-03-30 01:00:00 11.5 19 Sur 39 Sur 0 972.3 0 77
2019-03-30 00:00:00 11.5 17 Sur 39 Sudeste 0 972.6 0.9 77
2019-03-29 23:00:00 11.5 18 Sur 46 Sur 0 972.7 1.2 75
2019-03-29 22:00:00 11.5 22 Sur 54 Sudeste 0 972.3 0.8 76
2019-03-29 21:00:00 11.6 26 Sur 53 Sudeste 0 971.7 0 72
2019-03-29 20:00:00 11.9 17 Sur 43 Sur 0 971.5 -0.1 71
2019-03-29 19:00:00 12.6 20 Sur 44 Sur 0 971.5 -0.4 65
2019-03-29 18:00:00 13.5 16 Sur 42 Sur 0 971.7 -0.5 60
2019-03-29 17:00:00 14.4 21 Sur 51 Sur 0 971.6 -0.8 57
2019-03-29 16:00:00 14.8 21 Sur 49 Sur 0 971.9 -1.1 56
2019-03-29 15:00:00 14.6 21 Sur 47 Sur 0 972.2 -1.2 57
2019-03-29 14:00:00 14.8 23 Sur 51 Sur 0 972.4 -1.1 57
2019-03-29 13:00:00 14.8 24 Sur 58 Sudeste 0 973 -0.5 56
2019-03-29 12:00:00 14.6 21 Sur 50 Sur 0 973.4 -0.1 58
2019-03-29 11:00:00 13.6 21 Sur 53 Sudeste 0 973.5 0.2 61
2019-03-29 10:00:00 12 22 Sur 52 Sur 0 973.5 0.4 64
2019-03-29 09:00:00 11 19 Sur 45 Sur 0 973.5 0.6 68
2019-03-29 08:00:00 11.1 17 Sur 40 Sudeste 0 973.3 0.3 64
2019-03-29 07:00:00 10.6 13 Sur 34 Sur 0 973.1 0 62
2019-03-29 06:00:00 10.8 16 Sudeste 49 Sudeste 0 972.9 -0.1 59
2019-03-29 05:00:00 10.6 16 Sudeste 52 Sudeste 0 973 -0.8 59
2019-03-29 04:00:00 10.7 14 Sudeste 40 Este 0 973.1 -1.1 55
2019-03-29 03:00:00 10.4 12 Sudeste 32 Sudeste 0 973 -1.7 65
2019-03-29 02:00:00 10.6 10 Sudeste 33 Sudeste 0 973.8 -- 65
2019-03-29 01:00:00 9.9 12 Sudeste 25 Este 0 974.2 -0.7 80
2019-03-29 00:00:00 10.3 13 Este 30 Este 0 974.7 0.5 78
2019-03-28 23:00:00 -- 0 Calma 30 Sudeste 0 -- -- --
2019-03-28 22:00:00 10.6 9 Sudeste 36 Sur 0 974.9 2.1 71
2019-03-28 21:00:00 10.9 10 Sur 47 Sudeste 0 974.2 1 68
2019-03-28 20:00:00 11.3 22 Sur 59 Sur 0 973.1 -0.2 62
2019-03-28 19:00:00 12.3 31 Sudeste 55 Sur 0 972.8 -0.7 50
2019-03-28 18:00:00 13.6 25 Sudeste 49 Sudeste 0 973.2 -0.8 42
2019-03-28 17:00:00 15.3 18 Sur 47 Sur 0 973.3 -1 36
2019-03-28 16:00:00 15.6 27 Sudeste 47 Sudeste 0 973.5 -1.4 36
2019-03-28 15:00:00 16.1 21 Sudeste 50 Sudeste 0 974 -1.4 34
2019-03-28 14:00:00 16.2 21 Sudeste 54 Sudeste 0 974.3 -1.5 32
2019-03-28 13:00:00 15.3 27 Sudeste 55 Sudeste 0.5 974.9 -1.1 39
2019-03-28 12:00:00 15.3 21 Sudeste 50 Sudeste 0 975.4 -0.8 46
2019-03-28 11:00:00 13.8 15 Sudeste 53 Sudeste 0 975.8 0.2 54
2019-03-28 10:00:00 12.5 17 Sudeste 44 Sur 0 976 1.1 59
2019-03-28 09:00:00 10.8 14 Sudeste 35 Sudeste 0 976.2 1.5 64
2019-03-28 08:00:00 9.9 14 Sudeste 36 Sudeste 0 975.6 1.1 68
2019-03-28 07:00:00 9.2 10 Sudeste 27 Sudeste 0 974.9 0.5 72
2019-03-28 06:00:00 9.5 10 Sudeste 30 Este 0 974.7 0.2 74
2019-03-28 05:00:00 9.6 7 Sudeste 22 Este 0 974.5 0 74
2019-03-28 04:00:00 9.8 10 Sudeste 28 Sudeste 0 974.4 -0.5 71
2019-03-28 03:00:00 10.1 9 Sur 33 Sur 0 974.5 -0.1 72
2019-03-28 02:00:00 10.5 11 Sur 31 Sudeste 0 974.5 -0.1 77
2019-03-28 01:00:00 10.8 12 Sur 38 Sudeste 0 974.9 0.7 77
2019-03-28 00:00:00 10.9 20 Sudeste 44 Sudeste 0 974.6 1 76
2019-03-27 23:00:00 11 23 Sudeste 45 Sudeste 0 974.6 1.9 74
2019-03-27 22:00:00 11.1 19 Sudeste 45 Sur 0 974.2 2.2 75
2019-03-27 21:00:00 11.2 17 Sur 43 Sur 0 973.6 2 71
2019-03-27 20:00:00 11.5 22 Sur 44 Sur 0 972.7 1.3 68
2019-03-27 19:00:00 12.3 24 Sudeste 45 Sur 0 972 0.5 60
2019-03-27 18:00:00 13.5 24 Sudeste 51 Sudeste 0 971.6 0.2 52
2019-03-27 17:00:00 14.6 22 Sur 44 Sudeste 0 971.4 -0.4 48
2019-03-27 16:00:00 15.6 18 Sur 36 Sur 0 971.5 -0.5 45
2019-03-27 15:00:00 16.2 12 Sur 35 Sur 0 971.4 -0.7 44
2019-03-27 14:00:00 16 15 Sur 39 Sur 0 971.8 -0.2 41
2019-03-27 13:00:00 15.7 7 Sur 24 Sur 0 972 0.4 41
2019-03-27 12:00:00 15.1 6 Sur 26 Sur 0 972.1 1.2 46
2019-03-27 11:00:00 14.2 11 Sudeste 28 Sudeste 0 972 1.2 56
2019-03-27 10:00:00 13.3 12 Sudeste 27 Sur 0 971.6 1.2 60
2019-03-27 09:00:00 11.7 9 Sur 20 Sudeste 0 970.9 1.2 63
2019-03-27 08:00:00 9.8 8 Sudeste 19 Sudeste 0 970.8 1.3 68
2019-03-27 07:00:00 9.3 6 Este 21 Este 0 970.4 1.2 68
2019-03-27 06:00:00 9.4 5 Sudeste 22 Sur 0 969.7 0.9 66
2019-03-27 05:00:00 10 8 Sudeste 31 Sudeste 0 969.5 0.8 70
2019-03-27 04:00:00 10.4 18 Sur 48 Sudeste 0 969.2 0.5 74
2019-03-27 03:00:00 10.5 24 Sur 44 Sur 0 968.8 0.6 72
2019-03-27 02:00:00 11.6 16 Sur 38 Sur 0 968.7 0.7 74
2019-03-27 01:00:00 11.9 20 Sur 36 Sur 0 968.7 1.4 71
2019-03-27 00:00:00 11.9 16 Sur 40 Sur 0 968.2 1.3 75
2019-03-26 23:00:00 12.3 19 Sur 46 Sudeste 0 968 2.7 80
2019-03-26 22:00:00 12.9 18 Sur 48 Sudeste 0 967.3 2.5 77
2019-03-26 21:00:00 13.3 25 Sur 50 Sur 0 966.9 2.6 76
2019-03-26 20:00:00 13.4 22 Sudeste 37 Sudeste 0 965.3 1.3 70
2019-03-26 19:00:00 14.2 15 Sur 49 Sur 0 964.8 0.5 63
2019-03-26 18:00:00 15.4 24 Sur 50 Sur 0 964.3 -0.5 58
2019-03-26 17:00:00 16.1 14 Sur 41 Sudoeste 0 964 -0.9 54
2019-03-26 16:00:00 17 14 Sur 36 Sur 0 964.3 -0.7 46
2019-03-26 15:00:00 17.8 20 Sudeste 40 Sudeste 0 964.8 -0.4 42
2019-03-26 14:00:00 19.4 17 Sudeste 41 Sudeste 0 964.9 -0.5 41
2019-03-26 13:00:00 19.7 17 Sudeste 43 Sur 0 965 0 41
2019-03-26 12:00:00 19 20 Sudeste 44 Sur 0 965.2 0.5 42
2019-03-26 11:00:00 18.2 12 Sudeste 27 Sudeste 0 965.4 0.7 48
2019-03-26 10:00:00 16.2 13 Sudeste 31 Sudeste 0 965 0.6 54
2019-03-26 09:00:00 13.9 10 Sudeste 29 Sudeste 0 964.7 0.4 62
2019-03-26 08:00:00 13.3 18 Sudeste 31 Sur 0 964.7 0.1 62
2019-03-26 07:00:00 12.7 12 Sudeste 27 Sudeste 0 964.4 -0.7 66
2019-03-26 06:00:00 12.4 13 Sudeste 28 Sudeste 0 964.3 -1.4 70
2019-03-26 05:00:00 12.3 12 Sudeste 30 Sudeste 0 964.6 -1.6 74
2019-03-26 04:00:00 12.1 12 Sudeste 25 Sudeste 0 965.1 -1.8 77
2019-03-26 03:00:00 12.1 13 Sudeste 28 Sudeste 0 965.7 -1 77
2019-03-26 02:00:00 12.5 17 Sur 27 Sur 0 966.2 -0.2 76
2019-03-26 01:00:00 13.2 13 Sur 31 Sudeste 0 966.9 0.5 71
2019-03-26 00:00:00 13.3 3 Sudeste -- -- -- 966.7 0.2 69
2019-03-25 23:00:00 13.8 17 Sur 42 Sur 0 966.4 0.5 64
2019-03-25 22:00:00 14.3 21 Sur 42 Sudeste 0 966.4 0.5 60
2019-03-25 21:00:00 14.4 5 Sur 29 Sur 0 966.5 0.7 59
2019-03-25 20:00:00 15.3 9 Sur 30 Sur 0 965.9 -0.3 53
2019-03-25 19:00:00 16.6 10 Sur 37 Sur 0 965.9 -0.7 50
2019-03-25 18:00:00 17.5 19 Sur 39 Sur 0 965.8 -1.4 48
2019-03-25 17:00:00 18.3 14 Sur 36 Sur 0 966.2 -2.1 47
2019-03-25 16:00:00 19 15 Sur 39 Sudeste 0 966.6 -2.5 46
2019-03-25 15:00:00 18.8 16 Sudeste 36 Sur 0 967.2 -2.5 46
2019-03-25 14:00:00 19 16 Sudeste 33 Sur 0 968.3 -1.9 46
2019-03-25 13:00:00 18.8 12 Sudeste 28 Sur 0 969.1 -- 47
2019-03-25 12:00:00 18.4 13 Sur 27 Sudeste 0 969.7 -0.6 50
2019-03-25 11:00:00 16.9 10 Sudeste 23 Sudeste 0 970.2 0 56
2019-03-25 10:00:00 -- -- -- -- -- -- -- -- --
2019-03-25 09:00:00 10.6 0 Calma 2 Oeste 0 970.3 0.5 77
2019-03-25 08:00:00 7.3 0 Calma 2 Noroeste 0 970.2 0.2 86
2019-03-25 07:00:00 7.4 0 Calma 7 Oeste 0 970 -0.2 83
2019-03-25 06:00:00 8.2 0 Calma 6 Nordeste 0 969.8 -0.8 80
2019-03-25 05:00:00 8.2 0 Calma 10 Nordeste 0 970 -0.6 80
2019-03-25 04:00:00 9.6 0 Calma 10 Oeste 0 970.2 -0.9 76
2019-03-25 03:00:00 11.4 4 Nordeste 12 Este 0 970.6 -0.9 70
2019-03-25 02:00:00 11.3 6 Nordeste 14 Este 0 970.6 -1.1 70
2019-03-25 01:00:00 12.1 0 Calma 12 Este 0 971.1 -0.3 70
2019-03-25 00:00:00 12.2 5 Nordeste 15 Sur 0 971.5 0.1 69
2019-03-24 23:00:00 13.3 4 Sur 22 Sudeste 0 971.7 0.6 65
2019-03-24 22:00:00 12.9 4 Sur 15 Sur 0 971.4 0.5 67
2019-03-24 21:00:00 13 6 Este 27 Sudeste 0 971.4 0.6 69
2019-03-24 20:00:00 13.9 9 Sudeste 28 Sudeste 0 971.1 0.4 63
2019-03-24 19:00:00 14.5 13 Sudeste 37 Sudeste 0 970.9 0.1 60
2019-03-24 18:00:00 15.7 18 Sudeste 37 Este 0 970.8 -0.5 58
2019-03-24 17:00:00 15 12 Sudeste 32 Sudeste 0 970.7 -1 64
2019-03-24 16:00:00 14.8 16 Sudeste 32 Sudeste 0 970.8 -1 69
2019-03-24 15:00:00 13.7 12 Sudeste 33 Este 0 971.3 -0.6 72
2019-03-24 14:00:00 13.8 9 Este 40 Sudeste 0 971.7 -0.5 68
2019-03-24 13:00:00 17.6 16 Sudeste 36 Sur 0 971.8 0.2 56
2019-03-24 12:00:00 15.9 14 Sudeste 30 Sur 0 971.9 0.8 64
2019-03-24 11:00:00 13.9 16 Este 32 Este 0 972.2 1.2 74
2019-03-24 10:00:00 12.9 13 Este 30 Este 0 971.6 0.8 78
2019-03-24 09:00:00 11.3 12 Este 18 Este 0 971.1 0.5 86
2019-03-24 08:00:00 10.1 8 Este 22 Sudeste 0 971 0.5 88
2019-03-24 07:00:00 10 13 Este 30 Este 0 970.8 0.2 87
2019-03-24 06:00:00 10.2 14 Este 31 Sudeste 0 970.6 -0.6 83
2019-03-24 05:00:00 11.3 12 Sudeste 25 Este 0 970.5 -0.8 77
2019-03-24 04:00:00 11.1 8 Sudeste 32 Sudeste 0 970.6 -0.9 78
2019-03-24 03:00:00 11.3 12 Sudeste 34 Este 0 971.2 -0.8 80
2019-03-24 02:00:00 11.5 10 Sudeste 28 Sudeste 0 971.3 -1.1 78
2019-03-24 01:00:00 11.5 10 Este 24 Este 0 971.5 -0.7 80
2019-03-24 00:00:00 11.8 10 Sudeste 26 Este 0 972 0 80
2019-03-23 23:00:00 11.7 7 Este 24 Este 0 972.4 0.7 82
2019-03-23 22:00:00 10.9 8 Nordeste 22 Sudeste 0 972.2 0.8 82
2019-03-23 21:00:00 11.7 10 Sudeste 27 Sudeste 0 972 1.7 71
2019-03-23 20:00:00 12.7 13 Sudeste 37 Sudeste 0 971.7 1.4 63
2019-03-23 19:00:00 13 18 Sudeste 45 Sudeste 0 971.4 0.7 63
2019-03-23 18:00:00 13.5 25 Sudeste 49 Sudeste 0 970.3 -1.4 62
2019-03-23 17:00:00 14.8 23 Sur 47 Sudeste 0 970.3 -2.3 58
2019-03-23 16:00:00 16.3 24 Sudeste 50 Sur 0 970.7 -2.8 51
2019-03-23 15:00:00 16.4 21 Sudeste 51 Sudeste 0 971.7 -2.2 51
2019-03-23 14:00:00 15.9 22 Sudeste 45 Este 0.7 972.6 -1.4 54
2019-03-23 13:00:00 15.7 18 Sudeste 42 Sudeste 0 973.5 -0.6 57
2019-03-23 12:00:00 15.1 18 Sudeste 40 Sudeste 0 973.9 -0.3 59
2019-03-23 11:00:00 14.6 18 Sudeste 43 Sudeste 0 974 -0.2 62
2019-03-23 10:00:00 12.7 16 Sudeste 32 Sur 0 974.1 0.2 69
2019-03-23 09:00:00 10.8 4 Este 18 Sur 0 974.2 0.4 72
2019-03-23 08:00:00 8 0 Calma 12 Este 0 974.2 0.2 82
2019-03-23 07:00:00 8.3 0 Calma 9 Nordeste 0 973.9 -0.2 81
2019-03-23 06:00:00 9.9 4 Sudeste 21 Nordeste 0 973.8 -0.9 76
2019-03-23 05:00:00 9.4 5 Sudeste 33 Sudeste 0 974 -1 83
2019-03-23 04:00:00 9.8 19 Sudeste 32 Sudeste 0 974.1 -0.9 82
2019-03-23 03:00:00 9.9 9 Este 38 Sudeste 0 974.7 -0.8 82
2019-03-23 02:00:00 10 12 Sudeste 30 Sudeste 0 975 -0.4 82
2019-03-23 01:00:00 9.7 6 Sudeste 21 Sur 0 975 -0.3 82
2019-03-23 00:00:00 10 5 Sudeste 19 Norte 0 975.5 0.7 80
2019-03-22 23:00:00 10.3 7 Sudeste 33 Sudeste 0 975.4 1.3 78
2019-03-22 22:00:00 10.6 13 Sur 30 Sur 0 975.3 1.4 75
2019-03-22 21:00:00 11.1 9 Sur 33 Sur 0 974.8 1.2 71
2019-03-22 20:00:00 11.7 17 Sur 34 Sur 0 974.1 0.2 64
2019-03-22 19:00:00 12.7 14 Sur 40 Sur 0 973.9 -0.2 56
2019-03-22 18:00:00 13.5 18 Sur 33 Sur 0 973.6 -0.8 57
2019-03-22 17:00:00 14.7 15 Sur 41 Sudeste 0 973.9 -0.9 53
2019-03-22 16:00:00 15 15 Sur 32 Sudeste 0 974.1 -1 51
2019-03-22 15:00:00 15.3 14 Sur 33 Sudeste 0 974.4 -1.2 48
2019-03-22 14:00:00 15.7 12 Sudeste 33 Sudeste 0 974.8 -1.1 47
2019-03-22 13:00:00 14.8 11 Sudeste 30 Sudeste 0 975.1 -1.1 47
2019-03-22 12:00:00 14.4 12 Sudeste 29 Sudeste 0 975.6 -0.3 52
2019-03-22 11:00:00 12.8 12 Sudeste 24 Sur 0 975.9 0 58
2019-03-22 10:00:00 11.2 6 Este 13 Este 0 976.2 0.5 65
2019-03-22 09:00:00 7.7 5 Nordeste 12 Nordeste 0 975.9 0.7 78
2019-03-22 08:00:00 6.3 9 Nordeste 13 Nordeste 0 975.9 0.6 81
2019-03-22 07:00:00 5.9 8 Nordeste 13 Nordeste 0 975.7 0.3 82
2019-03-22 06:00:00 7.7 0 Calma 10 Sur 0 975.2 -0.2 80
2019-03-22 05:00:00 7.3 0 Calma 6 Sudoeste 0 975.3 -0.5 78
2019-03-22 04:00:00 8.3 0 Calma 14 Sudeste 0 975.4 -0.4 77
2019-03-22 03:00:00 8.9 0 Calma 23 Sur 0 975.4 -0.6 78
2019-03-22 02:00:00 9.2 11 Sudeste 38 Sudeste 0 975.8 -0.3 81
2019-03-22 01:00:00 9.4 17 Sudeste 48 Sudeste 0 975.8 -0.1 80
2019-03-22 00:00:00 9.3 13 Sudeste 35 Sudeste 0 976 0.4 79
2019-03-21 23:00:00 9.7 17 Sudeste 33 Sudeste 0 976.1 1 72
2019-03-21 22:00:00 9.8 13 Sur 34 Sur 0 975.9 1.1 72
2019-03-21 21:00:00 10.1 15 Sur 32 Sudeste 0 975.6 1.1 69
2019-03-21 20:00:00 10.5 11 Sur 30 Sur 0 975.1 0.9 64
2019-03-21 19:00:00 11.4 13 Sur 36 Sudeste 0 974.8 0.2 57
2019-03-21 18:00:00 12.5 19 Sur 35 Sudeste 0 974.5 -0.2 50
2019-03-21 17:00:00 13.4 18 Sur 36 Sur 0 974.2 -1 48
2019-03-21 16:00:00 14 12 Sur 35 Sudeste 0 974.6 -1.2 45
2019-03-21 15:00:00 14.3 12 Sur 32 Sur 0 974.7 -1.4 44
2019-03-21 14:00:00 14.4 13 Sur 28 Sur 0 975.2 -1.3 45
2019-03-21 13:00:00 14.3 10 Sudeste 28 Sudeste 0 975.8 -1 41
2019-03-21 12:00:00 12.3 4 Nordeste 22 Este 0 976.1 -0.4 50
2019-03-21 11:00:00 11.4 5 Este 15 Nordeste 0 976.5 0.3 56
2019-03-21 10:00:00 10.2 10 Este 16 Este 0 976.8 1.2 65
2019-03-21 09:00:00 7.3 3 Este 7 Este 0 976.5 1 78
2019-03-21 08:00:00 5.3 0 Calma 12 Norte 0 976.2 0.9 81
2019-03-21 07:00:00 5.1 0 Calma 10 Nordeste 0 975.6 0.6 83
2019-03-21 06:00:00 5.6 6 Nordeste 9 Norte 0 975.5 -0.1 81
2019-03-21 05:00:00 6.4 4 Nordeste 17 Sudeste 0 975.3 -0.5 80
2019-03-21 04:00:00 8.3 6 Sudeste 27 Sudeste 0 975 -0.7 75
2019-03-21 03:00:00 8.8 10 Sudeste 31 Sur 0 975.6 -0.6 75
2019-03-21 02:00:00 8.9 11 Sudeste 35 Sudeste 0 975.8 -0.7 75
2019-03-21 01:00:00 9.1 20 Sudeste 40 Sudeste 0 975.7 -0.8 75
2019-03-21 00:00:00 9.3 16 Sudeste 40 Sudeste 0 976.2 0 72
2019-03-20 23:00:00 9.7 20 Sudeste 39 Sudeste 0 976.5 0.7 72
2019-03-20 22:00:00 10.4 14 Sur 34 Sur 0 976.5 1.2 70
2019-03-20 21:00:00 10.6 18 Sur 35 Sudeste 0 976.2 1.4 69
2019-03-20 20:00:00 10.8 17 Sur 36 Sur 0 975.8 1.2 66
2019-03-20 19:00:00 11.6 16 Sur 37 Sur 0 975.3 0.7 63
2019-03-20 18:00:00 12.9 16 Sudeste 38 Sudeste 0 974.8 -0.1 53
2019-03-20 17:00:00 13.1 19 Sudeste 36 Sudeste 0 974.6 -1 47
2019-03-20 16:00:00 14.1 15 Sudeste 38 Sudeste 0 974.6 -1.5 44
2019-03-20 15:00:00 14.3 15 Sur 36 Sudeste 0 974.9 -1.6 45
2019-03-20 14:00:00 13.6 22 Sudeste 41 Sur 0 975.6 -0.8 46
2019-03-20 13:00:00 12.9 22 Sudeste 43 Sudeste 0 976.1 0.1 53
2019-03-20 12:00:00 13.2 19 Sudeste 39 Sudeste 0 976.5 1 60
2019-03-20 11:00:00 12.6 14 Sur 32 Sur 0 976.4 1.2 64
2019-03-20 10:00:00 12.3 14 Sudeste 31 Sur 0 976 1.3 69
2019-03-20 09:00:00 10.7 15 Sudeste 27 Sur 0 975.5 1.1 76
2019-03-20 08:00:00 9.5 4 Sudeste 13 Sudeste 0 975.2 1.1 83
2019-03-20 07:00:00 9.1 5 Sudeste 21 Sudeste 0 974.7 0.3 86
2019-03-20 06:00:00 9.5 11 Sudeste 24 Sur 0 974.4 -0.3 83
2019-03-20 05:00:00 9.8 12 Sur 26 Sur 0 974.1 -0.7 81
2019-03-20 04:00:00 9.9 9 Sur 27 Sudeste 0 974.4 -0.7 82
2019-03-20 03:00:00 10.1 9 Sur 23 Sur 0 974.7 -0.7 81
2019-03-20 02:00:00 10.5 13 Sur 27 Sudeste 0 974.8 -0.4 80
2019-03-20 01:00:00 10.9 10 Sur 22 Sur 0 975.1 0.7 83
2019-03-20 00:00:00 11.3 5 Sur 17 Sudoeste 0 975.4 1.6 76
2019-03-19 23:00:00 11.3 2 Sudoeste 13 Sur 0 975.2 2.3 68
2019-03-19 22:00:00 11.2 0 Calma 4 Sudeste 0 974.4 2 40
2019-03-19 21:00:00 12.6 0 Calma 18 Norte 0 973.8 2.1 36
2019-03-19 20:00:00 14.6 6 Nordeste 22 Nordeste 0 972.9 1.2 33
2019-03-19 19:00:00 15.8 12 Nordeste 30 Nordeste 0 972.4 0.9 32
2019-03-19 18:00:00 16.6 12 Nordeste 37 Nordeste 0 971.7 0.2 32
2019-03-19 17:00:00 16.6 14 Nordeste 32 Nordeste 0 971.7 -0.3 31
2019-03-19 16:00:00 17.3 11 Nordeste 33 Norte 0 971.5 -1.3 29
2019-03-19 15:00:00 17.6 6 Norte 32 Noroeste 0 971.5 -1.8 28
2019-03-19 14:00:00 18.1 4 Norte 25 Nordeste 0 972 -1.6 28
2019-03-19 13:00:00 17.2 5 Norte 23 Nordeste 0 972.8 -0.9 35
2019-03-19 12:00:00 16 6 Nordeste 19 Nordeste 0 973.3 -- 44
2019-03-19 11:00:00 13.9 4 Nordeste 12 Norte 0 973.6 0.1 65
2019-03-19 10:00:00 12 0 Calma 9 Este 0 973.7 0.6 80
2019-03-19 09:00:00 -- 0 Calma 5 Nordeste 0 -- -- --
2019-03-19 08:00:00 7.2 0 Calma 12 Nordeste 0 973.5 0.7 94
2019-03-19 07:00:00 7.2 0 Calma 5 Nordeste 0 973.1 -0.2 92
2019-03-19 06:00:00 9.5 0 Calma 4 Norte 0 972.8 -0.7 92
2019-03-19 05:00:00 9.7 0 Calma 8 Sudeste 0 972.8 -1.3 89
2019-03-19 04:00:00 10.4 0 Calma 6 Sur 0 973.3 -0.9 91
2019-03-19 03:00:00 10.5 0 Calma 5 Noroeste 0 973.5 -0.7 89
2019-03-19 02:00:00 10.8 0 Calma 9 Sudoeste 0 974.1 0 88
2019-03-19 01:00:00 10.8 2 Noroeste 8 Sur 0 974.2 0.3 84
2019-03-19 00:00:00 11.6 0 Calma 12 Sur 0 974.2 0.8 80